Time;durP1;ratioP1;P1;durP2;ratioP2;P2;SDS_P1;SDS_P2;PMS_P1;PMS_P2;Temp;Humidity;BMP_temperature;BMP_pressure;BME280_temperature;BME280_humidity;BME280_pressure;Samples;Min_cycle;Max_cycle;Signal;HPM_P1;HPM_P2
2022/06/06 00:02:24;;;;;;;1.77;1.42;;;19.70;94.00;;;;;;947089;148;27375;-76
2022/06/06 00:04:51;;;;;;;1.60;1.50;;;19.70;94.00;;;;;;949237;147;27723;-76
2022/06/06 00:07:17;;;;;;;1.40;1.30;;;19.60;93.80;;;;;;953670;147;27391;-76
2022/06/06 00:09:44;;;;;;;1.42;1.32;;;19.60;93.70;;;;;;955626;147;27391;-76
2022/06/06 00:12:10;;;;;;;1.52;1.42;;;19.60;93.60;;;;;;954769;147;27310;-76
2022/06/06 00:14:37;;;;;;;4.12;1.45;;;19.50;93.50;;;;;;941699;148;27278;-76
2022/06/06 00:17:04;;;;;;;1.50;1.40;;;19.40;93.60;;;;;;956529;147;27403;-76
2022/06/06 00:19:30;;;;;;;1.77;1.60;;;19.40;93.60;;;;;;937930;150;27804;-76
2022/06/06 00:21:57;;;;;;;1.65;1.55;;;19.30;93.60;;;;;;936186;150;27370;-76
2022/06/06 00:24:23;;;;;;;1.47;1.37;;;19.20;93.70;;;;;;944534;148;27323;-76
2022/06/06 00:26:50;;;;;;;1.20;1.20;;;19.10;93.90;;;;;;956244;147;27650;-76
2022/06/06 00:29:17;;;;;;;1.60;1.50;;;19.00;94.00;;;;;;953603;148;27413;-76
2022/06/06 00:37:12;;;;;;;1.20;1.20;;;18.80;94.40;;;;;;964023;146;27957;-76
2022/06/06 00:39:39;;;;;;;1.80;1.70;;;18.70;94.50;;;;;;960517;146;27403;-76
2022/06/06 00:42:05;;;;;;;1.67;1.57;;;18.60;94.80;;;;;;962782;146;27376;-76
2022/06/06 00:44:32;;;;;;;1.60;1.50;;;18.50;94.90;;;;;;958826;146;27248;-76
2022/06/06 00:47:24;;;;;;;2.20;1.72;;;18.40;95.20;;;;;;957697;147;27298;-76
2022/06/06 00:49:55;;;;;;;2.67;1.65;;;18.40;95.40;;;;;;962671;146;27408;-76
2022/06/06 00:52:25;;;;;;;1.75;1.65;;;18.30;95.50;;;;;;961044;147;27306;-76
2022/06/06 00:54:51;;;;;;;2.02;1.50;;;18.20;95.70;;;;;;938812;150;27374;-76
2022/06/06 00:57:18;;;;;;;2.00;1.90;;;18.20;96.00;;;;;;945893;148;27336;-76
2022/06/06 00:59:45;;;;;;;1.90;1.72;;;18.10;96.40;;;;;;957889;147;27408;-76
2022/06/06 01:02:11;;;;;;;1.70;1.60;;;18.10;97.00;;;;;;946070;148;27462;-76
2022/06/06 01:04:39;;;;;;;2.00;1.85;;;18.10;97.50;;;;;;960634;146;27342;-76
2022/06/06 01:07:04;;;;;;;1.85;1.75;;;18.10;97.90;;;;;;958848;145;27299;-76
2022/06/06 01:09:31;;;;;;;1.98;1.87;;;18.20;98.10;;;;;;955213;146;27311;-76
2022/06/06 01:12:00;;;;;;;1.70;1.60;;;18.30;98.20;;;;;;960563;146;27288;-76
2022/06/06 01:14:25;;;;;;;2.45;2.17;;;18.30;98.00;;;;;;960389;146;27733;-76
2022/06/06 01:16:51;;;;;;;2.10;1.90;;;18.30;98.00;;;;;;957874;145;27368;-76
2022/06/06 01:19:23;;;;;;;2.98;1.65;;;18.40;98.20;;;;;;959536;145;27373;-76
2022/06/06 01:22:23;;;;;;;2.22;2.05;;;18.40;98.10;;;;;;963487;145;27365;-76
2022/06/06 01:24:56;;;;;;;2.27;2.08;;;18.40;98.00;;;;;;961558;145;27361;-76
2022/06/06 01:27:46;;;;;;;2.02;1.92;;;18.50;97.70;;;;;;962730;145;27314;-76
2022/06/06 01:30:16;;;;;;;2.27;2.08;;;18.50;97.70;;;;;;950622;148;27423;-76
2022/06/06 01:32:42;;;;;;;1.80;1.70;;;18.50;97.60;;;;;;960746;145;27469;-76
2022/06/06 01:35:09;;;;;;;2.37;2.17;;;18.40;97.50;;;;;;959226;145;27360;-76
2022/06/06 01:37:35;;;;;;;4.30;2.12;;;18.40;97.60;;;;;;958850;145;27322;-76
2022/06/06 01:40:02;;;;;;;2.17;2.08;;;18.40;97.70;;;;;;964598;145;27297;-76
2022/06/06 01:42:34;;;;;;;2.58;2.37;;;18.40;97.80;;;;;;961962;145;27311;-76
2022/06/06 01:45:06;;;;;;;2.23;2.03;;;18.30;97.80;;;;;;960857;145;27771;-76
2022/06/06 01:47:36;;;;;;;3.55;2.52;;;18.30;97.90;;;;;;964019;145;27369;-76
2022/06/06 01:50:03;;;;;;;2.77;2.40;;;18.30;98.00;;;;;;963044;145;27330;-76
2022/06/06 01:52:29;;;;;;;2.42;2.22;;;18.30;98.00;;;;;;962697;145;28320;-76
2022/06/06 01:54:55;;;;;;;3.43;2.20;;;18.20;98.40;;;;;;964089;145;27321;-76
2022/06/06 01:57:22;;;;;;;2.20;2.10;;;18.20;98.20;;;;;;963662;145;27318;-76
2022/06/06 01:59:48;;;;;;;2.27;2.10;;;18.20;98.50;;;;;;966123;145;27317;-75
2022/06/06 02:02:15;;;;;;;2.35;2.25;;;18.20;98.30;;;;;;962199;145;27364;-76
2022/06/06 02:04:42;;;;;;;2.80;2.33;;;18.10;98.30;;;;;;963103;145;27418;-76
2022/06/06 02:07:08;;;;;;;2.45;2.25;;;18.10;98.40;;;;;;962366;145;27725;-76
2022/06/06 02:09:36;;;;;;;2.67;2.47;;;18.10;98.50;;;;;;963350;145;27810;-75
2022/06/06 02:12:01;;;;;;;2.67;2.35;;;18.00;98.50;;;;;;963372;145;27338;-76
2022/06/06 02:14:28;;;;;;;2.85;2.65;;;18.00;98.60;;;;;;958430;145;27319;-76
2022/06/06 02:16:55;;;;;;;2.67;2.47;;;18.00;98.70;;;;;;963823;145;27310;-76
2022/06/06 02:19:21;;;;;;;3.12;2.87;;;17.90;98.80;;;;;;963913;145;27350;-76
2022/06/06 02:21:48;;;;;;;3.90;2.60;;;17.90;98.80;;;;;;962001;145;27397;-76
2022/06/06 02:24:14;;;;;;;2.40;2.30;;;17.90;99.00;;;;;;961180;145;27467;-76
2022/06/06 02:26:42;;;;;;;2.97;2.63;;;17.80;99.10;;;;;;961748;145;27366;-76
2022/06/06 02:29:08;;;;;;;3.17;2.65;;;17.80;99.20;;;;;;963113;145;27952;-76
2022/06/06 02:31:37;;;;;;;2.67;2.47;;;17.80;99.30;;;;;;963800;145;27773;-76
2022/06/06 02:34:01;;;;;;;2.90;2.70;;;17.70;99.30;;;;;;964926;145;27286;-76
2022/06/06 02:36:27;;;;;;;3.53;3.27;;;17.70;99.40;;;;;;965641;145;27301;-76
2022/06/06 02:38:54;;;;;;;3.60;2.77;;;17.70;99.50;;;;;;961603;145;27770;-76
2022/06/06 02:41:22;;;;;;;3.52;3.25;;;17.70;99.60;;;;;;965941;145;27410;-76
2022/06/06 02:43:47;;;;;;;3.00;2.80;;;17.60;99.70;;;;;;965566;145;27461;-76
2022/06/06 02:46:14;;;;;;;3.37;3.08;;;17.60;99.80;;;;;;961107;145;27391;-76
2022/06/06 02:48:40;;;;;;;2.87;2.67;;;17.60;99.90;;;;;;960569;145;27365;-76
2022/06/06 02:51:07;;;;;;;3.60;3.30;;;17.60;99.90;;;;;;967103;145;27322;-76
2022/06/06 02:53:33;;;;;;;3.73;3.27;;;17.60;99.90;;;;;;963450;145;27300;-77
2022/06/06 02:56:00;;;;;;;3.60;3.30;;;17.50;99.90;;;;;;963648;145;27350;-77
2022/06/06 02:58:27;;;;;;;3.35;3.05;;;17.50;99.90;;;;;;961799;145;27880;-78
2022/06/06 03:01:04;;;;;;;4.17;3.75;;;17.50;99.90;;;;;;960306;145;27311;-78
2022/06/06 03:03:29;;;;;;;3.70;3.30;;;17.50;99.90;;;;;;960915;145;27290;-78
2022/06/06 03:05:58;;;;;;;3.52;3.22;;;17.50;99.90;;;;;;958764;145;27464;-78
2022/06/06 03:08:34;;;;;;;3.63;3.43;;;17.50;99.90;;;;;;942374;145;27432;-78
2022/06/06 03:11:03;;;;;;;5.47;3.90;;;17.50;99.90;;;;;;964617;145;27458;-78
2022/06/06 03:13:48;;;;;;;4.35;3.95;;;17.50;99.90;;;;;;960893;145;27431;-78
2022/06/06 03:22:11;;;;;;;3.65;3.20;;;17.50;99.90;;;;;;966144;145;27488;-77
2022/06/06 03:24:57;;;;;;;3.83;3.52;;;17.50;99.90;;;;;;961920;145;27349;-78
2022/06/06 03:27:26;;;;;;;4.30;3.90;;;17.50;99.90;;;;;;961999;145;27441;-79
2022/06/06 03:30:04;;;;;;;6.78;3.60;;;17.50;99.90;;;;;;963734;145;27357;-79
2022/06/06 03:32:49;;;;;;;4.87;4.00;;;17.50;99.90;;;;;;964589;145;27304;-78
2022/06/06 03:35:36;;;;;;;4.80;3.50;;;17.50;99.90;;;;;;946525;148;27335;-78
2022/06/06 03:38:06;;;;;;;5.12;3.50;;;17.60;99.90;;;;;;941271;148;27439;-78
2022/06/06 03:40:57;;;;;;;5.08;3.85;;;17.60;99.90;;;;;;955051;146;27345;-78
2022/06/06 03:43:45;;;;;;;4.60;4.20;;;17.60;99.90;;;;;;963231;145;27775;-78
2022/06/06 03:46:11;;;;;;;4.03;3.67;;;17.60;99.90;;;;;;963257;145;27373;-78
2022/06/06 03:48:40;;;;;;;6.33;4.40;;;17.60;99.90;;;;;;961408;145;27310;-78
2022/06/06 03:51:14;;;;;;;4.53;3.72;;;17.60;99.90;;;;;;957884;145;27305;-78
2022/06/06 03:53:54;;;;;;;4.58;4.10;;;17.60;99.90;;;;;;963128;145;27441;-78
2022/06/06 03:56:48;;;;;;;5.08;3.92;;;17.70;99.90;;;;;;963608;145;27392;-78
2022/06/06 03:59:15;;;;;;;4.42;3.90;;;17.70;99.90;;;;;;957839;145;27424;-78
2022/06/06 04:01:41;;;;;;;5.00;4.33;;;17.70;99.90;;;;;;964885;145;27395;-78
2022/06/06 04:04:08;;;;;;;4.23;3.83;;;17.70;99.90;;;;;;959306;145;27335;-79
2022/06/06 04:06:34;;;;;;;4.22;3.72;;;17.80;99.90;;;;;;957048;147;27380;-78
2022/06/06 04:09:01;;;;;;;5.20;4.08;;;17.90;99.90;;;;;;950752;148;27449;-78
2022/06/06 04:11:30;;;;;;;5.05;4.62;;;17.90;99.90;;;;;;952950;148;27404;-78
2022/06/06 04:14:12;;;;;;;6.45;4.60;;;17.90;99.90;;;;;;952101;149;27381;-78
2022/06/06 04:17:02;;;;;;;4.20;3.87;;;18.00;99.90;;;;;;933165;149;27229;-78
2022/06/06 04:19:47;;;;;;;4.72;3.80;;;18.10;99.90;;;;;;937210;149;27290;-78
2022/06/06 04:22:35;;;;;;;5.37;4.17;;;18.20;99.90;;;;;;954066;147;27439;-78
2022/06/06 04:25:07;;;;;;;6.83;4.25;;;18.20;99.90;;;;;;941396;149;27297;-78
2022/06/06 04:27:40;;;;;;;4.58;4.15;;;18.30;99.90;;;;;;940142;149;27257;-78
2022/06/06 04:30:06;;;;;;;4.20;3.80;;;18.40;99.90;;;;;;951116;147;27335;-78
2022/06/06 04:32:36;;;;;;;3.98;3.67;;;18.40;99.90;;;;;;935268;150;27432;-78
2022/06/06 04:35:08;;;;;;;4.70;3.92;;;18.60;99.90;;;;;;947671;148;27311;-78
2022/06/06 04:37:46;;;;;;;4.78;4.30;;;18.70;99.90;;;;;;947896;148;27460;-78
2022/06/06 04:40:13;;;;;;;6.17;4.30;;;18.80;99.90;;;;;;950380;148;27461;-78
2022/06/06 04:42:42;;;;;;;4.40;3.98;;;18.90;99.90;;;;;;940367;149;27413;-78
2022/06/06 04:45:18;;;;;;;4.55;4.22;;;19.00;99.90;;;;;;940588;149;27266;-78
2022/06/06 04:47:44;;;;;;;4.45;4.10;;;19.10;99.90;;;;;;934603;149;27427;-78
2022/06/06 04:50:11;;;;;;;4.17;3.80;;;19.20;99.90;;;;;;940166;149;27379;-78
2022/06/06 04:52:38;;;;;;;4.00;3.70;;;19.40;99.90;;;;;;953887;147;27424;-78
2022/06/06 04:55:04;;;;;;;3.42;3.12;;;19.60;99.90;;;;;;950549;149;27352;-78
2022/06/06 04:57:31;;;;;;;3.70;3.42;;;19.90;99.90;;;;;;954643;147;27342;-78
2022/06/06 04:59:57;;;;;;;4.10;3.65;;;20.10;99.90;;;;;;956584;148;27316;-78
2022/06/06 05:02:24;;;;;;;4.10;3.35;;;20.40;99.90;;;;;;957694;147;27411;-79
2022/06/06 05:04:51;;;;;;;3.67;3.37;;;20.70;99.90;;;;;;955072;149;27393;-78
2022/06/06 05:07:35;;;;;;;3.45;3.15;;;21.00;99.90;;;;;;965990;145;27329;-78
2022/06/06 05:10:05;;;;;;;3.50;3.20;;;21.30;99.90;;;;;;958823;146;27449;-79
2022/06/06 05:12:50;;;;;;;3.87;3.58;;;21.70;99.90;;;;;;968299;144;27207;-79
2022/06/06 05:15:19;;;;;;;3.45;3.15;;;22.10;99.90;;;;;;945264;146;27473;-79
2022/06/06 05:18:10;;;;;;;4.25;3.12;;;22.30;99.10;;;;;;959455;147;27367;-78
2022/06/06 05:21:14;;;;;;;3.20;2.90;;;22.50;97.90;;;;;;947858;148;27445;-79
2022/06/06 05:23:49;;;;;;;3.55;3.30;;;22.60;96.90;;;;;;957200;148;27308;-78
2022/06/06 05:26:37;;;;;;;3.45;3.15;;;22.70;96.40;;;;;;967871;145;27411;-79
2022/06/06 05:29:09;;;;;;;3.15;2.85;;;22.80;96.60;;;;;;948926;149;27749;-78
2022/06/06 05:32:06;;;;;;;4.55;3.17;;;23.00;97.70;;;;;;968993;145;27330;-78
2022/06/06 05:34:37;;;;;;;3.35;3.08;;;23.20;99.10;;;;;;968433;145;27318;-78
2022/06/06 05:37:21;;;;;;;3.05;2.85;;;23.60;99.90;;;;;;969451;145;27290;-78
2022/06/06 05:40:25;;;;;;;3.00;2.70;;;24.10;99.90;;;;;;952432;148;27360;-78
2022/06/06 05:43:06;;;;;;;2.95;2.62;;;24.60;99.00;;;;;;942895;149;27315;-79
2022/06/06 05:45:39;;;;;;;3.17;2.87;;;25.20;95.80;;;;;;973262;145;27365;-79
2022/06/06 05:48:15;;;;;;;3.08;2.85;;;25.60;93.00;;;;;;949791;149;27364;-79
2022/06/06 05:50:47;;;;;;;4.53;2.90;;;25.70;90.80;;;;;;968748;145;27447;-79
2022/06/06 05:53:28;;;;;;;3.20;2.90;;;25.80;88.50;;;;;;966815;145;27412;-79
2022/06/06 05:56:03;;;;;;;2.52;2.40;;;25.70;86.70;;;;;;965386;145;27326;-79
2022/06/06 05:58:58;;;;;;;3.00;2.80;;;25.70;86.80;;;;;;959375;146;27355;-79
2022/06/06 06:01:33;;;;;;;3.92;3.40;;;25.70;87.40;;;;;;967196;145;27268;-79
2022/06/06 06:04:24;;;;;;;3.45;3.25;;;25.70;87.10;;;;;;966616;145;27282;-79
2022/06/06 06:07:03;;;;;;;3.02;2.83;;;25.80;86.80;;;;;;964136;143;27471;-79
2022/06/06 06:09:32;;;;;;;3.65;2.80;;;25.80;86.20;;;;;;958650;147;27460;-79
2022/06/06 06:12:13;;;;;;;2.58;2.47;;;25.90;85.10;;;;;;960285;147;27377;-79
2022/06/06 06:14:58;;;;;;;3.10;2.80;;;26.00;84.40;;;;;;958110;146;27274;-79
2022/06/06 06:17:25;;;;;;;3.33;3.02;;;26.00;84.50;;;;;;961260;146;27381;-78
2022/06/06 06:19:54;;;;;;;2.80;2.62;;;26.00;82.60;;;;;;961035;146;27339;-78
2022/06/06 06:22:20;;;;;;;3.52;3.25;;;26.00;81.90;;;;;;962096;145;27320;-78
2022/06/06 06:24:47;;;;;;;3.37;3.08;;;26.00;81.30;;;;;;959048;146;28442;-79
2022/06/06 06:27:13;;;;;;;4.03;3.22;;;26.00;80.90;;;;;;959903;146;27356;-79
2022/06/06 06:29:40;;;;;;;3.10;2.90;;;26.00;81.80;;;;;;961281;146;27314;-79
2022/06/06 06:32:38;;;;;;;3.02;2.72;;;26.10;83.30;;;;;;953211;146;27429;-79
2022/06/06 06:35:35;;;;;;;3.10;2.80;;;26.10;83.40;;;;;;953998;146;27347;-79
2022/06/06 06:38:19;;;;;;;3.08;2.87;;;26.30;81.90;;;;;;960884;146;27300;-78
2022/06/06 06:40:55;;;;;;;3.50;3.20;;;26.40;79.90;;;;;;958104;146;27373;-79
2022/06/06 06:43:28;;;;;;;3.55;3.33;;;26.50;79.80;;;;;;958412;146;27323;-79
2022/06/06 06:45:57;;;;;;;3.77;2.85;;;26.50;82.10;;;;;;957641;146;27323;-78
2022/06/06 06:48:24;;;;;;;3.22;2.98;;;26.80;82.60;;;;;;960066;146;27299;-79
2022/06/06 06:51:11;;;;;;;3.10;2.90;;;27.10;80.90;;;;;;954167;146;27307;-79
2022/06/06 06:54:12;;;;;;;2.90;2.67;;;27.30;79.40;;;;;;961483;146;27294;-79
2022/06/06 06:56:44;;;;;;;2.67;2.42;;;27.70;81.30;;;;;;957326;146;27318;-79
2022/06/06 06:59:32;;;;;;;2.98;2.77;;;28.30;82.60;;;;;;952899;146;27665;-79
2022/06/06 07:11:09;;;;;;;2.83;2.62;;;30.00;69.90;;;;;;955842;146;27507;-79
2022/06/06 07:13:54;;;;;;;3.35;3.05;;;30.00;67.80;;;;;;958469;146;27327;-79
2022/06/06 07:16:21;;;;;;;2.98;2.77;;;29.80;66.10;;;;;;944381;149;27375;-79
2022/06/06 07:18:50;;;;;;;3.12;2.77;;;29.50;65.10;;;;;;951781;146;27401;-79
2022/06/06 07:21:17;;;;;;;2.60;2.40;;;29.20;64.50;;;;;;955308;146;27338;-79
2022/06/06 07:23:43;;;;;;;3.25;2.87;;;28.90;64.00;;;;;;960678;146;27347;-79
2022/06/06 07:26:10;;;;;;;2.92;2.70;;;28.50;63.90;;;;;;961857;146;27345;-79
2022/06/06 07:28:36;;;;;;;3.10;2.90;;;28.20;65.20;;;;;;959472;147;27274;-79
2022/06/06 07:31:06;;;;;;;2.42;2.22;;;28.00;65.90;;;;;;959070;146;27476;-79
2022/06/06 07:33:35;;;;;;;3.10;2.80;;;27.90;66.10;;;;;;958553;146;27324;-79
2022/06/06 07:36:04;;;;;;;2.60;2.40;;;27.80;66.00;;;;;;950210;146;27274;-79
2022/06/06 07:38:52;;;;;;;3.70;2.92;;;27.80;66.40;;;;;;959788;146;27378;-79
2022/06/06 07:41:21;;;;;;;2.65;2.45;;;27.80;66.50;;;;;;959354;146;27322;-79
2022/06/06 07:43:56;;;;;;;2.20;2.02;;;27.90;66.50;;;;;;955701;146;27320;-79
2022/06/06 07:46:26;;;;;;;2.47;2.27;;;27.90;66.00;;;;;;956887;146;27295;-79
2022/06/06 07:49:03;;;;;;;2.20;2.10;;;28.00;66.00;;;;;;955541;146;27308;-79
2022/06/06 07:51:33;;;;;;;2.22;2.02;;;28.20;67.20;;;;;;962740;145;27385;-79
2022/06/06 07:54:12;;;;;;;3.25;2.15;;;28.60;68.90;;;;;;961593;146;27323;-79
2022/06/06 07:57:12;;;;;;;2.00;1.90;;;29.20;70.60;;;;;;955632;146;27494;-79
2022/06/06 07:59:46;;;;;;;1.90;1.80;;;30.20;71.70;;;;;;945207;148;27390;-79
2022/06/06 08:02:36;;;;;;;1.95;1.77;;;31.50;71.90;;;;;;946268;148;26341;-80
2022/06/06 08:05:39;;;;;;;1.70;1.60;;;32.70;69.80;;;;;;969781;145;26282;-80
2022/06/06 08:08:18;;;;;;;2.12;1.60;;;34.00;66.40;;;;;;966395;145;26332;-80
2022/06/06 08:10:44;;;;;;;1.77;1.55;;;35.30;62.80;;;;;;969925;145;26201;-80
2022/06/06 08:13:29;;;;;;;1.95;1.72;;;36.10;59.00;;;;;;968597;144;26176;-80
2022/06/06 08:16:08;;;;;;;1.75;1.65;;;36.60;56.00;;;;;;966791;145;26212;-80
2022/06/06 08:18:52;;;;;;;1.87;1.75;;;36.90;53.40;;;;;;943742;148;26257;-80
2022/06/06 08:21:22;;;;;;;3.10;1.90;;;36.70;51.60;;;;;;962128;146;27311;-80
2022/06/06 08:23:48;;;;;;;3.35;1.90;;;36.30;50.70;;;;;;963754;146;27315;-80
2022/06/06 08:26:15;;;;;;;1.95;1.85;;;35.80;49.90;;;;;;961708;146;27392;-80
2022/06/06 08:28:42;;;;;;;2.85;2.20;;;35.10;49.50;;;;;;963824;146;27363;-80
2022/06/06 08:31:08;;;;;;;2.02;1.92;;;34.40;50.00;;;;;;964303;146;27450;-80
2022/06/06 08:33:35;;;;;;;2.22;2.02;;;33.60;50.40;;;;;;965515;146;27339;-80
2022/06/06 08:36:20;;;;;;;2.22;2.02;;;32.90;51.10;;;;;;963678;146;27335;-80
2022/06/06 08:38:46;;;;;;;2.72;2.05;;;32.20;51.60;;;;;;962375;146;27462;-80
2022/06/06 08:41:33;;;;;;;3.22;2.37;;;31.40;52.40;;;;;;957658;146;27743;-79
2022/06/06 08:44:03;;;;;;;3.72;2.47;;;30.50;53.00;;;;;;965091;146;27364;-79
2022/06/06 08:46:38;;;;;;;2.98;2.72;;;29.70;53.60;;;;;;963827;146;27347;-79
2022/06/06 08:49:10;;;;;;;3.52;2.77;;;28.80;53.70;;;;;;963189;146;27397;-79
2022/06/06 08:51:49;;;;;;;2.50;2.35;;;28.00;54.80;;;;;;967271;146;27430;-79
2022/06/06 08:54:37;;;;;;;3.87;2.90;;;27.20;55.60;;;;;;962806;146;27390;-79
2022/06/06 08:57:25;;;;;;;2.92;2.67;;;26.40;56.50;;;;;;964578;146;27326;-79
2022/06/06 09:00:07;;;;;;;2.83;2.40;;;25.70;57.50;;;;;;963018;146;27332;-79
2022/06/06 09:03:07;;;;;;;2.95;2.40;;;24.90;58.40;;;;;;963063;146;27411;-79
2022/06/06 09:05:54;;;;;;;4.12;2.12;;;24.30;59.40;;;;;;965814;146;27391;-79
2022/06/06 09:08:42;;;;;;;6.65;2.35;;;23.70;60.50;;;;;;963891;145;27315;-78
2022/06/06 09:11:39;;;;;;;2.40;2.20;;;23.20;61.80;;;;;;940980;148;27829;-79
2022/06/06 09:14:24;;;;;;;3.22;2.40;;;22.80;63.00;;;;;;966187;145;27286;-78
2022/06/06 09:16:51;;;;;;;2.55;2.35;;;22.40;64.20;;;;;;962940;144;27256;-79
2022/06/06 09:19:45;;;;;;;2.70;2.50;;;22.10;65.50;;;;;;963316;146;27287;-79
2022/06/06 09:22:14;;;;;;;2.80;2.37;;;21.90;66.80;;;;;;960476;146;27353;-79
2022/06/06 09:24:46;;;;;;;2.52;2.35;;;21.60;67.70;;;;;;958777;145;27662;-79
2022/06/06 09:27:22;;;;;;;3.08;2.70;;;21.50;69.00;;;;;;960508;146;27348;-78
2022/06/06 09:30:16;;;;;;;3.58;3.10;;;21.50;69.90;;;;;;966119;145;27420;-79
2022/06/06 09:32:43;;;;;;;3.05;2.85;;;21.50;70.60;;;;;;965505;145;27448;-78
2022/06/06 09:35:19;;;;;;;2.90;2.70;;;21.40;72.00;;;;;;970611;145;27651;-78
2022/06/06 09:37:52;;;;;;;5.10;2.72;;;21.50;73.00;;;;;;961943;145;27414;-78
2022/06/06 09:40:23;;;;;;;3.00;2.70;;;21.60;74.00;;;;;;963153;145;27379;-78
2022/06/06 09:42:55;;;;;;;2.62;2.42;;;21.70;74.50;;;;;;965383;145;27341;-78
2022/06/06 09:45:31;;;;;;;2.40;2.25;;;21.80;74.50;;;;;;962372;145;27327;-78
2022/06/06 09:47:58;;;;;;;2.83;2.62;;;22.00;75.00;;;;;;966818;145;27447;-78
2022/06/06 09:50:59;;;;;;;2.45;2.25;;;22.10;75.30;;;;;;967537;145;27405;-78
2022/06/06 09:59:56;;;;;;;2.35;1.98;;;22.40;74.10;;;;;;964345;145;27344;-77
2022/06/06 10:02:37;;;;;;;1.85;1.75;;;22.40;75.20;;;;;;964816;145;27302;-78
2022/06/06 10:05:41;;;;;;;1.80;1.70;;;22.50;75.00;;;;;;958044;146;27346;-78
2022/06/06 10:08:23;;;;;;;2.02;1.60;;;22.60;76.00;;;;;;949151;148;27337;-78
2022/06/06 10:11:10;;;;;;;1.95;1.85;;;22.80;76.60;;;;;;962309;145;27306;-78
2022/06/06 10:13:37;;;;;;;2.10;1.55;;;23.00;76.90;;;;;;966609;145;27429;-78
2022/06/06 10:16:37;;;;;;;2.47;2.00;;;23.20;76.10;;;;;;946324;145;27416;-78
2022/06/06 10:19:21;;;;;;;1.80;1.70;;;23.30;75.60;;;;;;959042;145;27443;-78
2022/06/06 10:22:00;;;;;;;3.15;1.98;;;23.50;75.40;;;;;;962985;145;27366;-78
2022/06/06 10:24:51;;;;;;;2.58;1.77;;;23.70;76.20;;;;;;965283;145;27389;-78
2022/06/06 10:27:45;;;;;;;1.70;1.60;;;23.80;76.20;;;;;;955492;146;27330;-78
2022/06/06 10:30:22;;;;;;;1.90;1.80;;;24.00;75.90;;;;;;964255;145;27334;-78
2022/06/06 10:33:02;;;;;;;1.65;1.55;;;24.30;75.70;;;;;;958773;146;27378;-78
2022/06/06 10:35:48;;;;;;;1.60;1.50;;;24.50;75.70;;;;;;964232;145;27342;-78
2022/06/06 10:38:32;;;;;;;2.00;1.90;;;24.70;75.00;;;;;;964564;145;27288;-78
2022/06/06 10:40:59;;;;;;;2.45;1.85;;;25.00;74.50;;;;;;957017;145;27335;-79
2022/06/06 10:43:31;;;;;;;1.70;1.60;;;25.20;74.10;;;;;;957534;145;27313;-79
2022/06/06 10:46:03;;;;;;;2.05;1.37;;;25.50;74.70;;;;;;960122;145;27431;-79
2022/06/06 10:48:30;;;;;;;1.62;1.52;;;25.80;73.70;;;;;;960683;145;27337;-79
2022/06/06 10:51:42;;;;;;;1.50;1.40;;;26.10;72.80;;;;;;944635;148;27425;-79
2022/06/06 10:54:30;;;;;;;1.45;1.45;;;26.40;71.70;;;;;;961053;145;27352;-79
2022/06/06 10:56:59;;;;;;;1.47;1.47;;;26.70;70.70;;;;;;961220;145;27847;-79
2022/06/06 10:59:54;;;;;;;1.50;1.40;;;26.90;69.50;;;;;;968552;145;28082;-79
2022/06/06 11:02:44;;;;;;;1.35;1.25;;;27.00;68.90;;;;;;956090;145;27818;-79
2022/06/06 11:05:45;;;;;;;1.95;1.22;;;27.20;68.60;;;;;;968169;145;27348;-79
2022/06/06 11:08:39;;;;;;;1.65;1.30;;;27.20;67.10;;;;;;961514;145;27372;-79
2022/06/06 11:11:21;;;;;;;1.72;1.30;;;27.30;65.80;;;;;;969789;145;27423;-79
2022/06/06 11:13:50;;;;;;;1.40;1.30;;;27.30;64.60;;;;;;965139;147;27284;-79
2022/06/06 11:16:47;;;;;;;1.10;1.10;;;27.30;64.70;;;;;;946773;148;27358;-79
2022/06/06 11:19:41;;;;;;;0.90;0.90;;;27.30;64.50;;;;;;964843;145;27402;-79
2022/06/06 11:22:24;;;;;;;1.30;1.27;;;27.40;64.20;;;;;;964084;145;27438;-79
2022/06/06 11:25:13;;;;;;;1.27;1.27;;;27.40;64.20;;;;;;952426;147;27402;-79
2022/06/06 11:27:39;;;;;;;1.42;1.32;;;27.40;64.00;;;;;;939975;150;27382;-72
2022/06/06 11:30:12;;;;;;;2.30;1.20;;;27.30;63.80;;;;;;951945;149;27330;-72
2022/06/06 11:32:47;;;;;;;1.25;1.15;;;27.40;63.80;;;;;;932945;149;27378;-73
2022/06/06 11:35:26;;;;;;;1.15;1.07;;;27.40;63.50;;;;;;940613;149;27322;-72
2022/06/06 11:38:23;;;;;;;0.93;0.82;;;27.40;61.80;;;;;;934984;150;27367;-71
2022/06/06 11:41:01;;;;;;;1.02;1.02;;;27.40;61.30;;;;;;959028;147;27342;-73
2022/06/06 11:44:01;;;;;;;0.90;0.90;;;27.40;60.60;;;;;;940397;150;27488;-72
2022/06/06 11:46:49;;;;;;;1.10;1.10;;;27.40;60.10;;;;;;941838;150;27401;-72
2022/06/06 11:49:49;;;;;;;2.37;1.00;;;27.40;59.80;;;;;;936486;149;27435;-73
2022/06/06 11:52:34;;;;;;;0.95;0.90;;;27.30;59.60;;;;;;937535;150;27331;-73
2022/06/06 11:55:09;;;;;;;1.20;1.10;;;27.30;59.70;;;;;;934752;149;27389;-73
2022/06/06 11:57:44;;;;;;;1.10;1.10;;;27.30;59.60;;;;;;955921;147;27428;-72
2022/06/06 12:00:23;;;;;;;1.15;1.15;;;27.30;59.80;;;;;;951554;147;27369;-72
2022/06/06 12:03:10;;;;;;;1.10;1.10;;;27.30;59.70;;;;;;957009;147;27401;-72
2022/06/06 12:06:00;;;;;;;1.15;1.05;;;27.40;59.50;;;;;;950702;147;27470;-73
2022/06/06 12:08:35;;;;;;;1.27;1.17;;;27.60;59.50;;;;;;890420;156;27414;-72
2022/06/06 12:11:15;;;;;;;1.15;1.15;;;27.90;59.60;;;;;;928092;149;27359;-71
2022/06/06 12:14:05;;;;;;;1.17;0.93;;;28.00;59.60;;;;;;917803;150;27344;-72
2022/06/06 12:16:53;;;;;;;1.42;0.93;;;28.30;59.60;;;;;;937628;149;27415;-72
2022/06/06 12:19:44;;;;;;;1.00;0.90;;;28.50;58.60;;;;;;941254;150;27352;-71
2022/06/06 12:22:14;;;;;;;4.00;1.22;;;28.70;57.60;;;;;;943413;150;27329;-72
2022/06/06 12:24:58;;;;;;;0.95;0.95;;;28.90;56.60;;;;;;941504;149;27435;-71
2022/06/06 12:27:31;;;;;;;0.93;0.90;;;28.90;55.10;;;;;;939612;150;27378;-72
2022/06/06 12:30:09;;;;;;;1.42;0.80;;;29.00;54.40;;;;;;910520;153;27321;-71
2022/06/06 12:32:38;;;;;;;1.52;0.60;;;28.90;53.60;;;;;;949795;148;27476;-72
2022/06/06 12:35:20;;;;;;;1.12;0.80;;;28.90;53.60;;;;;;946092;148;27345;-72
2022/06/06 12:38:02;;;;;;;0.60;0.60;;;28.80;53.50;;;;;;937763;148;27317;-71
2022/06/06 12:40:46;;;;;;;0.93;0.70;;;28.80;53.60;;;;;;945802;148;27305;-72
2022/06/06 12:43:34;;;;;;;1.52;0.90;;;28.70;53.60;;;;;;946644;148;27884;-71
2022/06/06 12:46:34;;;;;;;2.02;0.80;;;28.60;53.30;;;;;;929967;148;27454;-73
2022/06/06 12:49:09;;;;;;;0.80;0.80;;;28.50;53.20;;;;;;945649;148;27353;-71
2022/06/06 12:51:48;;;;;;;1.02;1.00;;;28.50;53.70;;;;;;947348;148;27271;-71
2022/06/06 12:57:52;;;;;;;0.82;0.80;;;28.40;52.90;;;;;;946177;148;27342;-73
2022/06/06 13:01:37;;;;;;;0.80;0.80;;;28.30;53.10;;;;;;942032;148;27380;-71
2022/06/06 13:03:02;;;;;;;1.00;0.75;;;28.30;53.30;;;;;;955629;147;27359;-71
2022/06/06 13:05:40;;;;;;;2.02;1.00;;;28.30;52.40;;;;;;938137;150;27994;-71
2022/06/06 13:08:28;;;;;;;0.70;0.70;;;28.20;52.20;;;;;;915268;151;27519;-71
2022/06/06 13:11:13;;;;;;;0.82;0.65;;;28.20;51.70;;;;;;936444;150;27352;-72
2022/06/06 13:13:54;;;;;;;1.47;0.80;;;28.10;51.80;;;;;;936889;150;27801;-71
2022/06/06 13:16:30;;;;;;;0.82;0.82;;;28.00;52.00;;;;;;924124;152;27358;-72
2022/06/06 13:19:18;;;;;;;1.62;0.88;;;27.90;52.10;;;;;;926620;152;27511;-71
2022/06/06 13:21:53;;;;;;;1.02;0.90;;;27.90;52.10;;;;;;941442;150;27273;-71
2022/06/06 13:24:29;;;;;;;1.10;1.10;;;27.90;52.60;;;;;;937340;149;27379;-75
2022/06/06 13:26:56;;;;;;;1.60;0.90;;;27.90;52.30;;;;;;945345;149;27503;-72
2022/06/06 13:29:28;;;;;;;1.17;0.80;;;27.90;52.10;;;;;;920403;152;27367;-73
2022/06/06 13:32:16;;;;;;;0.60;0.60;;;27.80;51.90;;;;;;939233;150;27298;-72
2022/06/06 13:35:07;;;;;;;2.60;1.30;;;27.90;52.00;;;;;;937468;150;27378;-72
2022/06/06 13:37:54;;;;;;;1.02;1.00;;;27.80;51.80;;;;;;939392;150;27475;-72
2022/06/06 13:40:43;;;;;;;0.80;0.80;;;27.80;52.00;;;;;;937482;150;27322;-72
2022/06/06 13:43:28;;;;;;;0.90;0.90;;;27.80;52.10;;;;;;942237;150;27399;-71
2022/06/06 13:46:06;;;;;;;0.90;0.70;;;27.80;51.90;;;;;;941034;150;27363;-72
2022/06/06 13:48:57;;;;;;;0.88;0.88;;;27.80;51.90;;;;;;943735;150;27277;-72
2022/06/06 13:52:01;;;;;;;2.17;0.90;;;27.80;51.90;;;;;;936971;150;27290;-73
2022/06/06 13:54:36;;;;;;;1.92;1.10;;;27.90;51.90;;;;;;936610;150;27364;-73
2022/06/06 13:57:21;;;;;;;0.70;0.70;;;27.90;51.90;;;;;;936038;150;27499;-71
2022/06/06 13:59:54;;;;;;;0.80;0.80;;;28.00;51.80;;;;;;936185;150;27373;-73
2022/06/06 14:02:26;;;;;;;0.82;0.82;;;28.00;51.60;;;;;;936247;150;27481;-71
2022/06/06 14:05:12;;;;;;;0.75;0.72;;;28.00;51.70;;;;;;936387;150;27344;-72
2022/06/06 14:07:49;;;;;;;0.80;0.80;;;28.00;51.50;;;;;;936348;150;27393;-74